Time;durP1;ratioP1;P1;durP2;ratioP2;P2;SDS_P1;SDS_P2;PMS_P1;PMS_P2;Temp;Humidity;BMP_temperature;BMP_pressure;BME280_temperature;BME280_humidity;BME280_pressure;Samples;Min_cycle;Max_cycle;Signal;HPM_P1;HPM_P2
2023/03/30 00:01:53;;;;;;;19.20;8.45;;;;;;;12.95;69.76;99979.53;5056764;28;20543;-67
2023/03/30 00:04:25;;;;;;;20.08;8.05;;;;;;;12.96;69.66;99983.06;5056242;28;20444;-66
2023/03/30 00:06:51;;;;;;;20.35;7.50;;;;;;;12.85;70.23;99985.91;5045824;28;20477;-67
2023/03/30 00:09:16;;;;;;;23.30;7.13;;;;;;;12.78;70.31;99979.84;5036346;28;20378;-67
2023/03/30 00:11:44;;;;;;;24.03;8.83;;;;;;;12.86;70.08;99983.22;5036310;28;20037;-67
2023/03/30 00:14:10;;;;;;;19.02;7.28;;;;;;;12.81;70.29;99978.94;5036173;28;20021;-67
2023/03/30 00:16:36;;;;;;;18.65;7.40;;;;;;;12.81;70.18;99968.38;5036405;28;20040;-66
2023/03/30 00:19:01;;;;;;;16.87;6.73;;;;;;;12.77;70.31;99975.47;5036003;28;20477;-67
2023/03/30 00:21:27;;;;;;;14.68;6.03;;;;;;;12.74;70.07;99975.53;5036307;28;20022;-66
2023/03/30 00:23:53;;;;;;;16.07;5.87;;;;;;;12.66;70.56;99973.00;5036035;28;20101;-66
2023/03/30 00:26:18;;;;;;;13.80;6.33;;;;;;;12.68;70.67;99973.00;5036429;28;20021;-67
2023/03/30 00:28:44;;;;;;;13.27;5.53;;;;;;;12.75;70.12;99972.84;5035947;28;20318;-66
2023/03/30 00:31:11;;;;;;;13.77;5.63;;;;;;;12.73;70.16;99979.06;5036229;28;20112;-66
2023/03/30 00:33:36;;;;;;;13.80;6.40;;;;;;;12.74;70.45;99981.66;5036298;28;20026;-66
2023/03/30 00:36:02;;;;;;;14.18;5.78;;;;;;;12.73;71.03;99989.63;5039417;28;20028;-67
2023/03/30 00:38:28;;;;;;;14.63;6.40;;;;;;;12.64;70.94;99980.94;5039874;28;20030;-67
2023/03/30 00:41:00;;;;;;;16.77;6.20;;;;;;;12.64;71.33;99991.50;5047462;28;20022;-67
2023/03/30 00:43:27;;;;;;;18.33;6.07;;;;;;;12.67;71.42;99980.03;5043864;28;20040;-67
2023/03/30 00:45:55;;;;;;;13.63;5.47;;;;;;;12.68;71.11;99970.34;5058625;28;20497;-67
2023/03/30 00:48:31;;;;;;;17.88;5.90;;;;;;;12.61;71.67;99981.00;5059988;28;20075;-67
2023/03/30 00:51:06;;;;;;;14.07;5.35;;;;;;;12.62;71.12;99980.09;5059565;28;20025;-67
2023/03/30 00:53:54;;;;;;;16.50;6.07;;;;;;;12.68;71.12;99978.28;5058538;28;20047;-67
2023/03/30 00:56:25;;;;;;;13.55;5.60;;;;;;;12.69;70.70;99977.38;5059317;28;20443;-67
2023/03/30 00:58:52;;;;;;;13.07;5.73;;;;;;;12.64;71.09;99988.88;5060006;28;20082;-67
2023/03/30 01:01:24;;;;;;;13.95;5.85;;;;;;;12.70;70.58;99990.56;5059706;28;20036;-67
2023/03/30 01:03:51;;;;;;;18.23;6.57;;;;;;;12.68;71.21;99999.41;5059820;28;20025;-67
2023/03/30 01:06:20;;;;;;;15.52;6.20;;;;;;;12.63;71.44;100004.78;5058213;28;20107;-67
2023/03/30 01:08:46;;;;;;;15.88;6.05;;;;;;;12.67;71.56;100005.59;5059657;28;20035;-67
2023/03/30 01:11:12;;;;;;;13.33;5.70;;;;;;;12.66;71.20;100004.72;5059422;28;20048;-66
2023/03/30 01:13:43;;;;;;;17.10;6.93;;;;;;;12.63;71.76;100010.06;5059576;28;20025;-67
2023/03/30 01:16:31;;;;;;;22.38;8.50;;;;;;;12.60;72.17;100005.69;5057852;28;20052;-67
2023/03/30 01:19:10;;;;;;;16.85;6.82;;;;;;;12.53;72.16;100009.31;5059081;28;20052;-67
2023/03/30 01:22:11;;;;;;;16.50;6.38;;;;;;;12.49;72.44;100012.94;5055563;28;20469;-66
2023/03/30 01:24:47;;;;;;;18.60;6.57;;;;;;;12.45;72.80;100013.88;5039259;28;20021;-68
2023/03/30 01:27:25;;;;;;;16.90;6.78;;;;;;;12.49;72.75;100010.28;5039206;28;20076;-68
2023/03/30 01:30:19;;;;;;;17.75;5.88;;;;;;;12.45;72.76;100005.94;5039157;28;20140;-68
2023/03/30 01:33:05;;;;;;;18.08;6.55;;;;;;;12.47;72.52;100020.00;5039359;28;20100;-68
2023/03/30 01:35:56;;;;;;;19.00;6.88;;;;;;;12.49;72.61;100034.91;5038826;28;20068;-68
2023/03/30 01:38:25;;;;;;;18.50;6.30;;;;;;;12.51;72.13;100058.66;5038805;28;20108;-68
2023/03/30 01:41:15;;;;;;;20.15;7.15;;;;;;;12.59;71.99;100058.56;5038871;28;20025;-68
2023/03/30 01:43:40;;;;;;;19.17;6.60;;;;;;;12.58;72.31;100057.66;5070889;28;20029;-68
2023/03/30 01:46:31;;;;;;;14.33;5.57;;;;;;;12.59;72.41;100069.13;5038498;28;20033;-68
2023/03/30 01:49:11;;;;;;;18.88;6.28;;;;;;;12.58;72.26;100070.88;5038707;28;20032;-68
2023/03/30 01:51:47;;;;;;;16.60;6.03;;;;;;;12.60;71.93;100081.44;5038781;28;20032;-68
2023/03/30 01:54:19;;;;;;;14.75;6.38;;;;;;;12.60;71.67;100074.38;5038692;28;20491;-68
2023/03/30 01:56:53;;;;;;;15.40;5.80;;;;;;;12.59;71.86;100069.97;5038843;28;20112;-68
2023/03/30 01:59:24;;;;;;;18.10;6.95;;;;;;;12.57;72.42;100063.84;5038580;28;20037;-68
2023/03/30 02:01:53;;;;;;;19.35;6.97;;;;;;;12.52;73.12;100054.25;5038928;28;20025;-68
2023/03/30 02:04:22;;;;;;;21.35;7.45;;;;;;;12.47;72.79;100052.53;5038482;28;20041;-68
2023/03/30 02:07:17;;;;;;;22.55;6.22;;;;;;;12.44;73.10;100060.53;5038797;28;20146;-68
2023/03/30 02:09:46;;;;;;;17.50;6.70;;;;;;;12.46;72.51;100060.50;5035605;28;20056;-68
2023/03/30 02:12:12;;;;;;;15.40;6.07;;;;;;;12.47;72.55;100051.69;5038518;28;20040;-68
2023/03/30 02:14:40;;;;;;;24.45;6.95;;;;;;;12.48;72.24;100051.66;5038398;28;20029;-68
2023/03/30 02:17:16;;;;;;;13.23;5.80;;;;;;;12.45;72.30;100049.06;5037009;28;20397;-68
2023/03/30 02:19:45;;;;;;;13.32;5.13;;;;;;;12.53;72.02;100061.25;5038151;28;20041;-68
2023/03/30 02:22:12;;;;;;;16.70;5.73;;;;;;;12.56;71.89;100054.19;5038219;28;20155;-68
2023/03/30 02:24:39;;;;;;;13.65;5.93;;;;;;;12.52;72.21;100049.84;5037989;28;20041;-68
2023/03/30 02:27:05;;;;;;;16.17;6.43;;;;;;;12.48;72.58;100051.66;5038107;28;20029;-68
2023/03/30 02:29:33;;;;;;;17.65;6.32;;;;;;;12.38;73.00;100055.34;5037886;28;20029;-68
2023/03/30 02:31:59;;;;;;;15.32;5.82;;;;;;;12.41;72.55;100047.38;5037895;28;20040;-68
2023/03/30 02:34:36;;;;;;;16.77;5.70;;;;;;;12.47;72.04;100039.34;5037999;28;20123;-68
2023/03/30 02:37:32;;;;;;;18.77;6.22;;;;;;;12.52;71.77;100049.84;5039186;28;20347;-68
2023/03/30 02:40:20;;;;;;;15.30;5.50;;;;;;;12.51;71.94;100066.59;5040412;28;20786;-68
2023/03/30 02:43:30;;;;;;;21.20;6.93;;;;;;;12.42;73.11;100064.06;5039456;28;20104;-68
2023/03/30 02:46:13;;;;;;;18.95;5.55;;;;;;;12.34;73.72;100067.72;5032529;28;20041;-68
2023/03/30 02:48:45;;;;;;;15.07;5.70;;;;;;;12.30;73.71;100075.72;5038089;28;20028;-68
2023/03/30 02:51:22;;;;;;;16.30;5.18;;;;;;;12.33;73.66;100080.94;5036315;28;20037;-68
2023/03/30 02:54:15;;;;;;;16.70;5.88;;;;;;;12.31;74.19;100088.88;5037957;28;20044;-68
2023/03/30 02:56:55;;;;;;;10.60;4.70;;;;;;;12.32;73.94;100109.09;5037427;28;20477;-67
2023/03/30 02:59:38;;;;;;;18.98;5.75;;;;;;;12.32;73.92;100113.53;5036262;28;20064;-68
2023/03/30 03:02:12;;;;;;;15.30;5.77;;;;;;;12.34;73.05;100125.78;5037984;28;20497;-68
2023/03/30 03:04:42;;;;;;;15.73;5.22;;;;;;;12.38;72.87;100133.66;5037424;28;20040;-67
2023/03/30 03:07:09;;;;;;;17.85;5.43;;;;;;;12.39;72.70;100138.06;5037864;28;20037;-67
2023/03/30 03:09:35;;;;;;;15.50;5.10;;;;;;;12.40;72.71;100139.81;5037611;28;20481;-68
2023/03/30 03:12:01;;;;;;;14.50;5.37;;;;;;;12.41;72.73;100144.19;5036134;28;20111;-68
2023/03/30 03:14:28;;;;;;;19.35;6.35;;;;;;;12.41;72.90;100146.81;5037435;28;20431;-68
2023/03/30 03:16:54;;;;;;;16.55;6.03;;;;;;;12.39;72.84;100165.34;5037412;28;20053;-68
2023/03/30 03:19:19;;;;;;;19.47;6.97;;;;;;;12.34;73.26;100168.03;5037023;28;20111;-68
2023/03/30 03:21:44;;;;;;;15.93;6.30;;;;;;;12.27;74.14;100170.78;5037434;28;20029;-68
2023/03/30 03:24:12;;;;;;;18.67;6.60;;;;;;;12.26;74.21;100180.47;5037031;28;20052;-68
2023/03/30 03:26:38;;;;;;;13.68;6.03;;;;;;;12.25;74.29;100189.28;5037496;28;20072;-67
2023/03/30 03:29:04;;;;;;;15.48;6.68;;;;;;;12.27;74.22;100197.19;5035515;28;20060;-68
2023/03/30 03:31:30;;;;;;;16.80;6.23;;;;;;;12.27;74.35;100200.72;5036894;28;20482;-68
2023/03/30 03:33:55;;;;;;;17.38;6.20;;;;;;;12.30;73.99;100202.44;5056251;28;20032;-68
2023/03/30 03:36:24;;;;;;;17.57;5.47;;;;;;;12.28;74.58;100196.28;5049482;28;20025;-68
2023/03/30 03:38:49;;;;;;;16.45;5.70;;;;;;;12.28;74.79;100202.47;5036825;28;20116;-68
2023/03/30 03:41:15;;;;;;;12.77;5.07;;;;;;;12.28;74.61;100218.31;5044176;28;20092;-68
2023/03/30 03:43:40;;;;;;;15.97;5.83;;;;;;;12.26;74.51;100206.88;5036844;28;20071;-68
2023/03/30 03:46:06;;;;;;;13.17;5.70;;;;;;;12.27;74.24;100220.94;5037131;28;20029;-68
2023/03/30 03:48:31;;;;;;;13.97;5.43;;;;;;;12.30;74.03;100220.94;5036872;28;20036;-67
2023/03/30 03:50:57;;;;;;;13.97;5.70;;;;;;;12.27;74.65;100221.84;5036530;28;20057;-68
2023/03/30 03:53:25;;;;;;;15.80;5.87;;;;;;;12.27;74.74;100224.47;5036788;28;20263;-68
2023/03/30 03:55:50;;;;;;;13.48;5.05;;;;;;;12.26;74.35;100238.56;5036950;28;20021;-67
2023/03/30 03:58:16;;;;;;;14.87;5.43;;;;;;;12.27;74.40;100249.97;5036630;28;20048;-68
2023/03/30 04:00:42;;;;;;;11.90;5.37;;;;;;;12.23;74.88;100243.00;5036900;28;20256;-68
2023/03/30 04:03:08;;;;;;;15.38;4.95;;;;;;;12.22;74.98;100247.41;5036740;28;20025;-67
2023/03/30 04:05:34;;;;;;;15.05;5.80;;;;;;;12.22;74.79;100243.88;5036658;28;20474;-68
2023/03/30 04:08:00;;;;;;;15.83;5.63;;;;;;;12.22;75.52;100235.97;5036450;28;20094;-67
2023/03/30 04:10:26;;;;;;;14.68;4.90;;;;;;;12.23;74.93;100248.28;5036753;28;20037;-68
2023/03/30 04:12:54;;;;;;;15.10;5.03;;;;;;;12.25;74.23;100251.78;5036920;28;20033;-68
2023/03/30 04:15:20;;;;;;;13.13;5.22;;;;;;;12.25;73.76;100268.50;5036672;28;20101;-68
2023/03/30 04:17:48;;;;;;;13.57;5.50;;;;;;;12.28;73.73;100278.13;5036882;28;20099;-67
2023/03/30 04:20:16;;;;;;;11.80;5.50;;;;;;;12.30;73.43;100282.53;5035144;28;20036;-68
2023/03/30 04:22:45;;;;;;;10.23;5.30;;;;;;;12.31;73.36;100284.28;5036457;28;20029;-67
2023/03/30 04:25:13;;;;;;;11.45;5.50;;;;;;;12.31;72.81;100289.56;5035230;28;20026;-67
2023/03/30 04:27:42;;;;;;;12.40;5.15;;;;;;;12.29;72.54;100299.25;5036195;28;20025;-67
2023/03/30 04:30:09;;;;;;;15.23;4.93;;;;;;;12.28;72.30;100302.78;5038953;28;20025;-68
2023/03/30 04:32:37;;;;;;;13.45;5.38;;;;;;;12.26;72.37;100301.03;5035627;28;20021;-68
2023/03/30 04:35:06;;;;;;;11.43;5.10;;;;;;;12.25;71.95;100304.56;5036221;28;20057;-68
2023/03/30 04:37:32;;;;;;;13.10;4.88;;;;;;;12.25;71.97;100301.94;5036493;28;20033;-67
2023/03/30 04:39:59;;;;;;;12.68;5.07;;;;;;;12.25;71.77;100296.66;5071081;28;20072;-67
2023/03/30 04:42:29;;;;;;;13.77;5.83;;;;;;;12.24;72.21;100301.06;5040923;28;20037;-68
2023/03/30 04:44:58;;;;;;;14.88;4.65;;;;;;;12.23;72.04;100307.25;5036550;28;20386;-68
2023/03/30 04:47:24;;;;;;;11.40;4.72;;;;;;;12.22;71.71;100308.16;5036823;28;20045;-68
2023/03/30 04:49:50;;;;;;;12.55;5.15;;;;;;;12.22;71.65;100309.88;5036084;28;20056;-67
2023/03/30 04:52:16;;;;;;;13.70;5.20;;;;;;;12.21;71.47;100319.59;5036588;28;20029;-68
2023/03/30 04:54:41;;;;;;;10.65;5.30;;;;;;;12.16;71.79;100316.09;5036344;28;20028;-67
2023/03/30 04:57:07;;;;;;;10.87;4.97;;;;;;;12.10;71.42;100316.16;5036285;28;20025;-68
2023/03/30 04:59:32;;;;;;;13.00;5.70;;;;;;;12.04;71.74;100317.09;5036357;28;20049;-68
2023/03/30 05:01:57;;;;;;;12.43;5.25;;;;;;;12.02;71.45;100314.47;5036534;28;20071;-68
2023/03/30 05:04:23;;;;;;;12.60;5.30;;;;;;;12.02;71.55;100314.47;5036103;28;20048;-67
2023/03/30 05:06:48;;;;;;;18.00;5.60;;;;;;;11.96;71.46;100314.50;5036338;28;20026;-68
2023/03/30 05:09:14;;;;;;;11.93;5.37;;;;;;;11.92;72.04;100302.22;5034829;28;20503;-67
2023/03/30 05:11:40;;;;;;;16.50;5.50;;;;;;;11.90;71.42;100314.53;5036088;28;20068;-67
2023/03/30 05:14:05;;;;;;;11.97;5.03;;;;;;;11.88;71.44;100311.94;5035861;28;20447;-67
2023/03/30 05:16:31;;;;;;;15.68;5.82;;;;;;;11.86;71.50;100311.09;5036208;28;20098;-67
2023/03/30 05:18:57;;;;;;;13.73;5.17;;;;;;;11.83;71.45;100310.22;5035879;28;20030;-67
2023/03/30 05:21:22;;;;;;;15.03;5.10;;;;;;;11.81;71.19;100309.34;5038128;28;20021;-68
2023/03/30 05:23:47;;;;;;;12.20;5.30;;;;;;;11.81;70.84;100314.63;5039248;28;20032;-68
2023/03/30 05:26:13;;;;;;;12.20;5.30;;;;;;;11.78;70.98;100318.16;5042654;28;20540;-68
2023/03/30 05:28:39;;;;;;;11.77;5.20;;;;;;;11.75;70.86;100324.38;5040470;28;20024;-68
2023/03/30 05:31:05;;;;;;;13.35;4.60;;;;;;;11.74;71.05;100330.53;5039083;28;20389;-67
2023/03/30 05:33:31;;;;;;;12.57;4.80;;;;;;;11.72;70.90;100339.31;5041391;28;20032;-67
2023/03/30 05:35:56;;;;;;;13.07;5.55;;;;;;;11.71;71.10;100350.78;5039090;28;20021;-67
2023/03/30 05:38:22;;;;;;;13.50;5.30;;;;;;;11.70;70.94;100362.22;5039003;28;20109;-67
2023/03/30 05:40:52;;;;;;;12.67;5.43;;;;;;;11.69;70.64;100353.41;5039602;28;20017;-67
2023/03/30 05:43:17;;;;;;;12.57;5.35;;;;;;;11.68;70.82;100356.94;5038524;28;20025;-68
2023/03/30 05:45:43;;;;;;;22.37;7.30;;;;;;;11.63;71.13;100348.19;5039078;28;20035;-68
2023/03/30 05:48:08;;;;;;;13.47;6.53;;;;;;;11.58;70.77;100357.88;5038753;28;20644;-67
2023/03/30 05:50:34;;;;;;;15.60;6.27;;;;;;;11.58;71.09;100360.53;5039178;28;20017;-67
2023/03/30 05:53:00;;;;;;;16.45;6.43;;;;;;;11.58;70.99;100371.06;5037641;28;20110;-68
2023/03/30 05:55:26;;;;;;;16.00;6.47;;;;;;;11.54;71.05;100364.06;5037900;28;20547;-68
2023/03/30 05:57:52;;;;;;;16.55;6.72;;;;;;;11.50;71.16;100350.03;5039115;28;20049;-68
2023/03/30 06:00:20;;;;;;;20.70;6.23;;;;;;;11.47;71.25;100366.75;5039124;28;20482;-67
2023/03/30 06:02:46;;;;;;;15.10;5.77;;;;;;;11.48;70.82;100376.44;5039078;28;20260;-68
2023/03/30 06:05:11;;;;;;;17.15;6.47;;;;;;;11.49;70.57;100386.09;5038663;28;20025;-67
2023/03/30 06:07:37;;;;;;;17.23;6.28;;;;;;;11.53;70.67;100386.91;5038777;28;20040;-67
2023/03/30 06:10:04;;;;;;;15.63;6.53;;;;;;;11.57;70.58;100406.25;5033294;28;20115;-67
2023/03/30 06:12:32;;;;;;;15.57;5.65;;;;;;;11.60;70.46;100403.59;5043203;28;20497;-67
2023/03/30 06:15:01;;;;;;;16.67;5.65;;;;;;;11.64;70.33;100402.69;5038231;28;20107;-68
2023/03/30 06:17:27;;;;;;;12.88;5.53;;;;;;;11.74;70.12;100409.66;5056249;28;20396;-67
2023/03/30 06:19:53;;;;;;;12.40;6.20;;;;;;;11.92;69.87;100413.03;5058100;28;20108;-67
2023/03/30 06:22:18;;;;;;;16.13;7.97;;;;;;;12.14;68.71;100421.72;5035877;28;20060;-68
2023/03/30 06:24:44;;;;;;;14.90;7.93;;;;;;;12.34;68.55;100420.69;5038434;28;20057;-68
2023/03/30 06:27:09;;;;;;;23.67;8.57;;;;;;;12.54;67.90;100422.25;5040035;28;20074;-67
2023/03/30 06:29:35;;;;;;;21.50;8.03;;;;;;;12.69;67.41;100423.88;5035840;28;20295;-67
2023/03/30 06:32:02;;;;;;;12.30;6.28;;;;;;;12.83;67.28;100416.66;5036447;28;20056;-67
2023/03/30 06:34:27;;;;;;;14.25;5.88;;;;;;;12.94;66.75;100415.69;5048886;28;20082;-67
2023/03/30 06:36:53;;;;;;;18.20;6.80;;;;;;;13.07;66.72;100417.28;5046232;28;20029;-67
2023/03/30 06:39:19;;;;;;;13.27;6.43;;;;;;;13.24;66.22;100432.94;5038247;28;20033;-67
2023/03/30 06:41:44;;;;;;;19.65;6.78;;;;;;;13.37;65.96;100431.00;5045512;28;20029;-67
2023/03/30 06:44:13;;;;;;;13.90;7.53;;;;;;;13.46;65.84;100435.34;5038316;28;20116;-68
2023/03/30 06:46:39;;;;;;;17.23;6.63;;;;;;;13.46;65.96;100427.41;5037497;28;20029;-67
2023/03/30 06:49:04;;;;;;;18.23;7.90;;;;;;;13.51;65.96;100432.63;5020282;28;20033;-68
2023/03/30 06:51:30;;;;;;;12.93;6.28;;;;;;;13.58;65.99;100434.28;5036578;28;20117;-68
2023/03/30 06:53:55;;;;;;;13.73;5.87;;;;;;;13.70;65.72;100439.44;5037775;28;20124;-68
2023/03/30 06:56:21;;;;;;;15.70;5.80;;;;;;;13.86;65.35;100445.38;5038110;28;20025;-67
2023/03/30 06:58:47;;;;;;;18.55;6.65;;;;;;;13.96;65.24;100442.56;5037925;28;20112;-68
2023/03/30 07:01:14;;;;;;;16.83;7.03;;;;;;;14.00;64.92;100442.50;5037647;28;20030;-68
2023/03/30 07:03:42;;;;;;;17.63;7.28;;;;;;;14.03;65.10;100446.91;5036470;28;20437;-68
2023/03/30 07:06:09;;;;;;;18.10;6.75;;;;;;;14.04;64.94;100451.28;5037763;28;20037;-68
2023/03/30 07:08:35;;;;;;;18.90;7.40;;;;;;;14.02;65.13;100448.66;5037585;28;20449;-69
2023/03/30 07:11:01;;;;;;;19.03;6.40;;;;;;;14.12;65.06;100457.34;5037593;28;20041;-67
2023/03/30 07:13:27;;;;;;;16.05;6.18;;;;;;;14.16;65.15;100453.72;5037830;28;20502;-68
2023/03/30 07:15:52;;;;;;;16.23;6.50;;;;;;;14.31;64.78;100449.97;5036166;28;20096;-68
2023/03/30 07:18:18;;;;;;;14.32;6.15;;;;;;;14.43;64.62;100455.97;5048310;28;20494;-68
2023/03/30 07:20:44;;;;;;;15.17;7.00;;;;;;;14.58;64.48;100460.97;5057260;28;20056;-68
2023/03/30 07:23:10;;;;;;;17.05;7.53;;;;;;;14.61;64.35;100460.94;5040415;28;20037;-68
2023/03/30 07:25:36;;;;;;;16.98;6.50;;;;;;;14.64;64.33;100466.19;5069282;28;20040;-68
2023/03/30 07:28:05;;;;;;;16.40;7.00;;;;;;;14.69;64.18;100455.50;5037357;28;20022;-67
2023/03/30 07:30:31;;;;;;;19.00;6.00;;;;;;;14.78;64.23;100462.44;5037423;28;20120;-67
2023/03/30 07:32:56;;;;;;;18.92;7.05;;;;;;;14.89;63.75;100449.88;5037240;28;20033;-68
2023/03/30 07:35:22;;;;;;;20.13;7.30;;;;;;;15.01;63.51;100437.25;5037004;28;20037;-67
2023/03/30 07:37:47;;;;;;;15.93;5.63;;;;;;;15.09;63.41;100435.34;5037125;28;20029;-67
2023/03/30 07:40:13;;;;;;;17.10;5.50;;;;;;;15.27;63.17;100446.47;5041785;28;20028;-67
2023/03/30 07:42:39;;;;;;;23.60;6.80;;;;;;;15.41;63.14;100436.44;5038383;28;20040;-67
2023/03/30 07:45:04;;;;;;;17.15;5.82;;;;;;;15.59;62.89;100423.69;5036674;28;20021;-67
2023/03/30 07:47:30;;;;;;;16.80;5.27;;;;;;;15.78;62.35;100429.47;5037146;28;20084;-67
2023/03/30 07:49:55;;;;;;;19.35;4.80;;;;;;;15.89;62.36;100418.63;5036808;28;20068;-67
2023/03/30 07:52:21;;;;;;;12.67;4.43;;;;;;;16.05;62.04;100417.34;5037345;28;20375;-67
2023/03/30 07:54:46;;;;;;;17.40;4.80;;;;;;;16.25;61.71;100431.91;5036945;28;20490;-67
2023/03/30 07:57:12;;;;;;;16.43;3.87;;;;;;;16.36;61.05;100436.94;5035577;28;20084;-67
2023/03/30 07:59:37;;;;;;;12.77;4.05;;;;;;;16.45;60.79;100441.16;5036912;28;20040;-67
2023/03/30 08:02:04;;;;;;;14.37;4.03;;;;;;;16.53;60.80;100438.31;5035772;28;20600;-67
2023/03/30 08:04:30;;;;;;;14.07;3.90;;;;;;;16.64;60.18;100430.94;5036583;28;20029;-67
2023/03/30 08:06:56;;;;;;;13.77;3.50;;;;;;;16.73;60.45;100436.00;5036844;28;20398;-67
2023/03/30 08:09:22;;;;;;;13.80;3.67;;;;;;;16.96;60.04;100437.16;5036809;28;20278;-67
2023/03/30 08:11:47;;;;;;;13.63;3.22;;;;;;;17.18;59.44;100448.06;5036495;28;20113;-67
2023/03/30 08:14:12;;;;;;;12.57;3.63;;;;;;;17.34;58.83;100448.50;5040871;28;20587;-67
2023/03/30 08:16:38;;;;;;;11.83;3.27;;;;;;;17.54;58.63;100449.69;5056801;28;20028;-67
2023/03/30 08:19:04;;;;;;;10.60;2.83;;;;;;;17.88;58.06;100454.00;5056203;28;20029;-67
2023/03/30 08:21:29;;;;;;;13.27;3.17;;;;;;;18.30;57.22;100450.03;5053749;28;20052;-67
2023/03/30 08:23:57;;;;;;;13.10;2.50;;;;;;;18.55;56.79;100464.31;5036387;28;20095;-67
2023/03/30 08:26:23;;;;;;;15.20;2.90;;;;;;;18.79;56.39;100457.25;5036871;28;20108;-67
2023/03/30 08:28:48;;;;;;;11.85;2.60;;;;;;;19.00;55.79;100465.47;5036338;28;20068;-67
2023/03/30 08:31:16;;;;;;;16.83;3.03;;;;;;;19.17;55.72;100483.53;5036577;28;20029;-67
2023/03/30 08:33:42;;;;;;;12.38;2.97;;;;;;;19.21;55.68;100486.03;5035144;28;20029;-67
2023/03/30 08:36:08;;;;;;;13.73;2.83;;;;;;;19.17;55.37;100486.19;5036632;28;20112;-67
2023/03/30 08:38:33;;;;;;;10.37;2.77;;;;;;;19.15;55.57;100491.59;5036337;28;20028;-67
2023/03/30 08:40:59;;;;;;;9.53;1.73;;;;;;;19.15;56.28;100486.25;5043849;28;20025;-67
2023/03/30 08:43:31;;;;;;;12.57;2.40;;;;;;;19.25;55.72;100475.25;5068392;28;20029;-67
2023/03/30 08:46:00;;;;;;;14.00;2.47;;;;;;;19.32;55.35;100474.97;5036770;28;20648;-67
2023/03/30 08:48:30;;;;;;;9.57;1.80;;;;;;;19.37;55.68;100474.78;5036423;28;20033;-67
2023/03/30 08:51:19;;;;;;;12.95;2.13;;;;;;;19.37;55.35;100469.44;5036335;28;20121;-67
2023/03/30 08:53:46;;;;;;;11.02;2.10;;;;;;;19.56;55.60;100468.75;5036465;28;20108;-67
2023/03/30 08:56:26;;;;;;;11.63;2.08;;;;;;;19.72;55.34;100488.59;5038188;28;20029;-67
2023/03/30 08:59:16;;;;;;;12.83;2.00;;;;;;;19.88;54.78;100463.94;5040587;28;20026;-67
2023/03/30 09:01:41;;;;;;;12.15;1.80;;;;;;;20.09;54.35;100459.56;5040420;28;20028;-67
2023/03/30 09:04:07;;;;;;;10.47;1.80;;;;;;;20.15;54.07;100466.47;5039948;28;20034;-67
2023/03/30 09:06:38;;;;;;;9.57;1.67;;;;;;;20.21;53.32;100468.91;5040181;28;20030;-67
2023/03/30 09:09:04;;;;;;;9.65;1.50;;;;;;;20.27;53.67;100475.81;5041323;28;20036;-67
2023/03/30 09:11:34;;;;;;;9.77;1.50;;;;;;;20.35;53.00;100474.53;5059932;28;20099;-67
2023/03/30 09:14:03;;;;;;;12.82;1.80;;;;;;;20.52;52.92;100480.97;5059768;28;20061;-67
2023/03/30 09:16:41;;;;;;;10.68;1.30;;;;;;;20.67;52.00;100479.44;5059811;28;20397;-67
2023/03/30 09:19:17;;;;;;;10.53;1.60;;;;;;;20.73;50.69;100465.81;5059453;28;20029;-67
2023/03/30 09:21:44;;;;;;;10.40;1.88;;;;;;;20.81;51.58;100468.19;5054994;28;20045;-67
2023/03/30 09:24:19;;;;;;;11.23;1.33;;;;;;;20.76;51.12;100473.72;5039572;28;20032;-67
2023/03/30 09:26:56;;;;;;;11.38;1.80;;;;;;;20.85;51.34;100477.81;5039814;28;20033;-67
2023/03/30 09:29:30;;;;;;;8.77;1.65;;;;;;;20.90;51.07;100475.84;5039421;28;20033;-67
2023/03/30 09:32:51;;;;;;;10.30;1.60;;;;;;;20.92;50.70;100479.31;5071511;28;20482;-67
2023/03/30 09:35:23;;;;;;;11.80;1.90;;;;;;;20.97;50.71;100475.56;5057052;28;20147;-67
2023/03/30 09:37:49;;;;;;;9.35;1.50;;;;;;;21.05;50.80;100478.75;5040529;28;20040;-68
2023/03/30 09:40:26;;;;;;;12.50;1.83;;;;;;;21.04;50.47;100472.53;5052708;28;20037;-67
2023/03/30 09:43:05;;;;;;;10.37;1.77;;;;;;;21.11;50.07;100467.78;5040339;28;20052;-67
2023/03/30 09:45:33;;;;;;;9.65;1.73;;;;;;;21.14;49.51;100489.06;5039432;28;20035;-67
2023/03/30 09:48:07;;;;;;;11.05;1.55;;;;;;;21.08;49.10;100497.34;5039322;28;20067;-67
2023/03/30 09:50:38;;;;;;;9.30;1.38;;;;;;;21.17;48.95;100502.31;5039066;28;20035;-67
2023/03/30 09:53:13;;;;;;;10.43;1.77;;;;;;;21.39;49.75;100505.81;5039103;28;20033;-67
2023/03/30 09:55:38;;;;;;;10.97;1.70;;;;;;;21.62;48.77;100505.63;5039419;28;20083;-67
2023/03/30 09:58:17;;;;;;;9.17;1.43;;;;;;;21.70;48.44;100513.34;5039052;28;20030;-67
2023/03/30 10:00:43;;;;;;;10.47;1.90;;;;;;;21.90;48.27;100517.75;5039203;28;20256;-67
2023/03/30 10:03:19;;;;;;;10.32;1.80;;;;;;;22.02;47.07;100518.97;5038844;28;20029;-67
2023/03/30 10:05:58;;;;;;;10.67;1.83;;;;;;;22.12;47.05;100515.88;5039603;28;20029;-67
2023/03/30 10:08:23;;;;;;;7.78;1.40;;;;;;;22.32;47.09;100507.72;5058900;28;20025;-67
2023/03/30 10:10:54;;;;;;;10.87;2.27;;;;;;;22.50;46.08;100519.38;5058673;28;20178;-68
2023/03/30 10:13:31;;;;;;;12.45;1.90;;;;;;;22.64;45.64;100510.63;5058887;28;20536;-67
2023/03/30 10:16:03;;;;;;;11.32;1.73;;;;;;;22.75;45.55;100501.16;5058561;28;20110;-67
2023/03/30 10:18:42;;;;;;;7.07;1.70;;;;;;;22.94;45.16;100495.72;5058671;28;20039;-67
2023/03/30 10:21:14;;;;;;;7.82;1.50;;;;;;;23.10;44.25;100498.47;5058442;28;20048;-67
2023/03/30 10:23:43;;;;;;;12.60;1.77;;;;;;;23.32;43.58;100502.72;5038399;28;20036;-68
2023/03/30 10:26:19;;;;;;;10.07;2.08;;;;;;;23.41;42.71;100494.16;5038854;28;20033;-67
2023/03/30 10:28:53;;;;;;;11.75;2.00;;;;;;;23.65;40.84;100499.13;5038200;28;20037;-68
2023/03/30 10:31:19;;;;;;;12.20;1.83;;;;;;;23.80;41.55;100489.34;5038510;28;20085;-68
2023/03/30 10:33:46;;;;;;;13.70;1.73;;;;;;;23.61;41.11;100500.25;5038368;28;20060;-67
2023/03/30 10:36:14;;;;;;;11.03;1.90;;;;;;;23.28;41.05;100510.06;5037230;28;20029;-67
2023/03/30 10:38:42;;;;;;;12.60;1.90;;;;;;;22.93;41.55;100500.19;5038080;28;20095;-67
2023/03/30 10:41:19;;;;;;;13.88;2.15;;;;;;;22.96;41.53;100490.25;5045511;28;20025;-67
2023/03/30 10:43:48;;;;;;;11.13;1.98;;;;;;;23.20;41.37;100480.88;5038483;28;20029;-67
2023/03/30 10:46:16;;;;;;;8.85;1.65;;;;;;;23.26;41.77;100489.59;5036938;28;20034;-67
2023/03/30 10:49:01;;;;;;;12.97;2.10;;;;;;;23.05;41.57;100493.31;5037968;28;20033;-67
2023/03/30 10:51:38;;;;;;;12.27;2.40;;;;;;;22.82;41.80;100490.97;5038061;28;20025;-67
2023/03/30 10:54:09;;;;;;;12.98;2.08;;;;;;;22.59;42.45;100491.22;5038053;28;20029;-67
2023/03/30 10:56:53;;;;;;;9.75;1.50;;;;;;;22.33;42.95;100488.00;5037911;28;20025;-67
2023/03/30 10:59:30;;;;;;;12.98;1.95;;;;;;;22.13;41.91;100480.06;5037876;28;20034;-67
2023/03/30 11:02:22;;;;;;;12.50;1.90;;;;;;;21.90;42.78;100477.53;5037935;28;20018;-67
2023/03/30 11:05:04;;;;;;;14.02;2.22;;;;;;;21.80;43.04;100466.41;5057369;28;20481;-67
2023/03/30 11:07:45;;;;;;;13.23;2.28;;;;;;;21.65;42.48;100453.75;5057650;28;20033;-67
2023/03/30 11:10:14;;;;;;;15.57;1.98;;;;;;;21.62;42.84;100462.75;5057605;28;20052;-67
2023/03/30 11:12:45;;;;;;;11.75;2.00;;;;;;;21.63;42.91;100474.34;5057506;28;20086;-67
2023/03/30 11:15:54;;;;;;;15.43;2.20;;;;;;;21.55;43.51;100472.03;5057643;28;20401;-67
2023/03/30 11:18:40;;;;;;;12.77;2.03;;;;;;;21.62;43.45;100480.66;5034577;28;20089;-67
2023/03/30 11:21:19;;;;;;;12.52;1.95;;;;;;;21.68;43.65;100477.72;5055688;28;20029;-67
2023/03/30 11:24:20;;;;;;;12.55;2.08;;;;;;;21.67;43.30;100489.38;5032538;28;20025;-67
2023/03/30 11:27:08;;;;;;;13.60;2.05;;;;;;;21.66;43.57;100479.59;5050877;28;20501;-67
2023/03/30 11:29:57;;;;;;;9.80;1.97;;;;;;;21.67;43.33;100470.63;5036199;28;20480;-67
2023/03/30 11:32:31;;;;;;;12.50;1.90;;;;;;;21.74;43.11;100461.34;5037381;28;20026;-67
2023/03/30 11:35:00;;;;;;;10.57;1.63;;;;;;;21.92;42.84;100456.03;5037252;28;20085;-67